Time;durP1;ratioP1;P1;durP2;ratioP2;P2;SDS_P1;SDS_P2;PMS_P1;PMS_P2;Temp;Humidity;BMP_temperature;BMP_pressure;BME280_temperature;BME280_humidity;BME280_pressure;Samples;Min_cycle;Max_cycle;Signal;HPM_P1;HPM_P2
2023/04/11 00:01:23;;;;;;;;;;;18.90;46.50;;;;;;4989170;28;20289;-54
2023/04/11 00:03:48;;;;;;;;;;;18.80;46.70;;;;;;4997229;28;19956;-54
2023/04/11 00:06:14;;;;;;;;;;;18.80;46.80;;;;;;4994885;28;19925;-54
2023/04/11 00:08:39;;;;;;;;;;;18.80;46.70;;;;;;4997083;28;20368;-54
2023/04/11 00:11:05;;;;;;;;;;;18.80;46.70;;;;;;4984792;28;19918;-54
2023/04/11 00:13:31;;;;;;;;;;;18.80;46.80;;;;;;5003401;28;20295;-54
2023/04/11 00:15:57;;;;;;;;;;;18.80;46.90;;;;;;4999787;28;19987;-54
2023/04/11 00:18:24;;;;;;;;;;;18.80;46.80;;;;;;4982242;28;19976;-54
2023/04/11 00:20:50;;;;;;;;;;;18.80;47.10;;;;;;4991185;28;19928;-55
2023/04/11 00:23:15;;;;;;;;;;;18.80;47.10;;;;;;4987310;28;19972;-54
2023/04/11 00:25:41;;;;;;;;;;;18.70;47.30;;;;;;4994898;28;20277;-54
2023/04/11 00:28:06;;;;;;;;;;;18.70;48.30;;;;;;5004681;28;19914;-55
2023/04/11 00:30:31;;;;;;;;;;;18.70;47.50;;;;;;4995290;28;19929;-54
2023/04/11 00:32:57;;;;;;;;;;;18.70;47.70;;;;;;4996203;28;19992;-54
2023/04/11 00:35:22;;;;;;;;;;;18.70;47.50;;;;;;5013797;28;19940;-54
2023/04/11 00:37:53;;;;;;;;;;;18.60;47.50;;;;;;4999267;28;19921;-54
2023/04/11 00:40:19;;;;;;;;;;;18.60;47.60;;;;;;4995277;28;19944;-54
2023/04/11 00:42:46;;;;;;;;;;;18.60;47.60;;;;;;4999853;28;19921;-55
2023/04/11 00:45:11;;;;;;;;;;;18.60;47.80;;;;;;5007778;28;20417;-54
2023/04/11 00:47:37;;;;;;;;;;;18.60;47.70;;;;;;4999940;28;19913;-54
2023/04/11 00:50:02;;;;;;;;;;;18.60;48.60;;;;;;5004607;28;19956;-54
2023/04/11 00:52:28;;;;;;;;;;;18.50;47.80;;;;;;5016151;28;20369;-55
2023/04/11 00:54:53;;;;;;;;;;;18.50;47.90;;;;;;5013838;28;19913;-55
2023/04/11 00:57:20;;;;;;;;;;;18.50;48.00;;;;;;5040602;28;20040;-54
2023/04/11 00:59:48;;;;;;;;;;;18.50;48.20;;;;;;5005411;28;19917;-55
2023/04/11 01:02:13;;;;;;;;;;;18.50;48.10;;;;;;5002394;28;19949;-54
2023/04/11 01:04:39;;;;;;;;;;;18.50;48.20;;;;;;5003033;28;19913;-54
2023/04/11 01:07:04;;;;;;;;;;;18.50;48.80;;;;;;4994659;28;20047;-54
2023/04/11 01:09:31;;;;;;;;;;;18.50;48.10;;;;;;4998433;28;19972;-54
2023/04/11 01:11:56;;;;;;;;;;;18.50;48.10;;;;;;4997143;28;19921;-55
2023/04/11 01:14:22;;;;;;;;;;;18.50;48.20;;;;;;4994697;28;19914;-54
2023/04/11 01:16:49;;;;;;;;;;;18.70;47.80;;;;;;5007399;28;20004;-54
2023/04/11 01:19:20;;;;;;;;;;;19.10;47.20;;;;;;4994334;28;19913;-54
2023/04/11 01:21:46;;;;;;;;;;;19.50;46.40;;;;;;5006862;28;19917;-55
2023/04/11 01:24:12;;;;;;;;;;;19.80;45.70;;;;;;5027803;28;19953;-54
2023/04/11 01:26:37;;;;;;;;;;;20.10;45.20;;;;;;4996275;28;20008;-54
2023/04/11 01:29:02;;;;;;;;;;;20.40;45.40;;;;;;4998633;28;19918;-54
2023/04/11 01:31:28;;;;;;;;;;;20.80;44.10;;;;;;5008532;28;19925;-54
2023/04/11 01:33:53;;;;;;;;;;;21.20;43.30;;;;;;4995063;28;19958;-54
2023/04/11 01:36:19;;;;;;;;;;;21.50;42.60;;;;;;5028327;28;19936;-54
2023/04/11 01:38:44;;;;;;;;;;;21.80;42.10;;;;;;4994505;28;19943;-54
2023/04/11 01:41:10;;;;;;;;;;;21.90;41.70;;;;;;4997146;28;20619;-54
2023/04/11 01:43:35;;;;;;;;;;;22.00;41.60;;;;;;5027132;28;19910;-54
2023/04/11 01:46:01;;;;;;;;;;;21.80;42.40;;;;;;5008709;28;20366;-54
2023/04/11 01:48:26;;;;;;;;;;;21.70;42.20;;;;;;5009778;28;20357;-55
2023/04/11 01:50:54;;;;;;;;;;;21.50;42.50;;;;;;5009135;28;20291;-55
2023/04/11 01:53:19;;;;;;;;;;;21.40;42.90;;;;;;4998405;28;19914;-54
2023/04/11 01:55:45;;;;;;;;;;;21.20;43.30;;;;;;4996122;28;20374;-54
2023/04/11 01:58:10;;;;;;;;;;;21.00;43.40;;;;;;4993981;28;19928;-54
2023/04/11 02:00:36;;;;;;;;;;;20.90;43.70;;;;;;4994847;28;20473;-54
2023/04/11 02:03:01;;;;;;;;;;;20.80;43.90;;;;;;4994934;28;20282;-55
2023/04/11 02:05:27;;;;;;;;;;;20.70;44.10;;;;;;5003637;28;19921;-54
2023/04/11 02:07:52;;;;;;;;;;;20.60;44.50;;;;;;4997022;28;19914;-54
2023/04/11 02:10:18;;;;;;;;;;;20.50;44.50;;;;;;5036240;28;20071;-54
2023/04/11 02:12:43;;;;;;;;;;;20.40;44.70;;;;;;4987799;28;19917;-54
2023/04/11 02:15:09;;;;;;;;;;;20.40;44.70;;;;;;4984860;28;19936;-54
2023/04/11 02:17:35;;;;;;;;;;;20.30;44.80;;;;;;5036607;28;20047;-55
2023/04/11 02:20:01;;;;;;;;;;;20.20;45.00;;;;;;5025433;28;19963;-55
2023/04/11 02:22:26;;;;;;;;;;;20.00;45.30;;;;;;4999215;28;19918;-54
2023/04/11 02:24:52;;;;;;;;;;;20.00;45.50;;;;;;4994369;28;19915;-55
2023/04/11 02:27:17;;;;;;;;;;;20.00;45.60;;;;;;5000292;28;19921;-54
2023/04/11 02:29:42;;;;;;;;;;;20.00;45.60;;;;;;4994914;28;19918;-54
2023/04/11 02:32:08;;;;;;;;;;;20.00;45.50;;;;;;4994304;28;19917;-54
2023/04/11 02:34:33;;;;;;;;;;;20.10;45.40;;;;;;5010942;28;19922;-55
2023/04/11 02:36:59;;;;;;;;;;;20.20;45.20;;;;;;4994038;28;19924;-54
2023/04/11 02:39:25;;;;;;;;;;;20.30;45.00;;;;;;4995244;28;20383;-54
2023/04/11 02:41:50;;;;;;;;;;;20.40;44.70;;;;;;4994043;28;20012;-55
2023/04/11 02:44:16;;;;;;;;;;;20.50;44.70;;;;;;4994422;28;19909;-54
2023/04/11 02:46:42;;;;;;;;;;;20.50;44.50;;;;;;4994067;28;19968;-54
2023/04/11 02:49:07;;;;;;;;;;;20.60;44.50;;;;;;4993997;28;19913;-55
2023/04/11 02:51:33;;;;;;;;;;;20.60;44.50;;;;;;4996278;28;19918;-53
2023/04/11 02:53:58;;;;;;;;;;;20.50;44.50;;;;;;4994202;28;19925;-53
2023/04/11 02:56:23;;;;;;;;;;;20.40;44.70;;;;;;4992915;28;19918;-53
2023/04/11 02:58:51;;;;;;;;;;;20.40;44.80;;;;;;4994802;28;20001;-53
2023/04/11 03:01:17;;;;;;;;;;;20.40;44.80;;;;;;4989682;28;19930;-52
2023/04/11 03:03:43;;;;;;;;;;;20.30;44.70;;;;;;4993001;28;20362;-53
2023/04/11 03:06:08;;;;;;;;;;;20.30;44.70;;;;;;5001643;28;20059;-53
2023/04/11 03:08:36;;;;;;;;;;;20.30;44.70;;;;;;4993978;28;19949;-53
2023/04/11 03:11:02;;;;;;;;;;;20.20;44.90;;;;;;5004138;28;19917;-53
2023/04/11 03:13:27;;;;;;;;;;;20.10;45.00;;;;;;4995026;28;19925;-52
2023/04/11 03:15:52;;;;;;;;;;;20.10;45.10;;;;;;4989409;28;20373;-52
2023/04/11 03:18:19;;;;;;;;;;;20.20;44.90;;;;;;4991954;28;20000;-53
2023/04/11 03:20:44;;;;;;;;;;;20.30;44.70;;;;;;4994638;28;20413;-53
2023/04/11 03:23:10;;;;;;;;;;;20.40;44.70;;;;;;4993369;28;19965;-52
2023/04/11 03:25:36;;;;;;;;;;;20.40;44.40;;;;;;5001933;28;19936;-53
2023/04/11 03:28:02;;;;;;;;;;;20.50;44.30;;;;;;4993452;28;19920;-52
2023/04/11 03:30:27;;;;;;;;;;;20.50;44.10;;;;;;4988633;28;19918;-53
2023/04/11 03:32:53;;;;;;;;;;;20.60;44.10;;;;;;4991612;28;19938;-53
2023/04/11 03:35:19;;;;;;;;;;;20.60;44.10;;;;;;4998631;28;19918;-53
2023/04/11 03:37:45;;;;;;;;;;;20.60;44.00;;;;;;4991517;28;19963;-53
2023/04/11 03:40:11;;;;;;;;;;;20.50;44.10;;;;;;5000078;28;19968;-52
2023/04/11 03:42:36;;;;;;;;;;;20.50;44.10;;;;;;4998073;28;20422;-53
2023/04/11 03:45:01;;;;;;;;;;;20.50;44.10;;;;;;4992475;28;19913;-55
2023/04/11 03:47:27;;;;;;;;;;;20.40;44.10;;;;;;5001290;28;19949;-52
2023/04/11 03:49:52;;;;;;;;;;;20.40;44.10;;;;;;4992245;28;19932;-53
2023/04/11 03:52:18;;;;;;;;;;;20.40;44.20;;;;;;4992598;28;19921;-53
2023/04/11 03:54:43;;;;;;;;;;;20.30;44.30;;;;;;4995298;28;19923;-53
2023/04/11 03:57:09;;;;;;;;;;;20.30;44.30;;;;;;4992858;28;20310;-53
2023/04/11 03:59:34;;;;;;;;;;;20.20;44.20;;;;;;4996869;28;19917;-53
2023/04/11 04:02:00;;;;;;;;;;;20.30;44.20;;;;;;5003025;28;19968;-54
2023/04/11 04:04:25;;;;;;;;;;;20.30;44.10;;;;;;5022155;28;19976;-54
2023/04/11 04:06:55;;;;;;;;;;;20.40;43.90;;;;;;4993044;28;19921;-53
2023/04/11 04:09:22;;;;;;;;;;;20.40;43.80;;;;;;5005707;28;19925;-53
2023/04/11 04:11:47;;;;;;;;;;;20.50;43.70;;;;;;4992780;28;19949;-54
2023/04/11 04:14:12;;;;;;;;;;;20.60;43.50;;;;;;4985167;28;19948;-53
2023/04/11 04:16:38;;;;;;;;;;;20.60;43.20;;;;;;4988717;28;19914;-53
2023/04/11 04:19:03;;;;;;;;;;;20.70;43.10;;;;;;4990237;28;19918;-53
2023/04/11 04:21:31;;;;;;;;;;;20.80;43.00;;;;;;4990544;28;19917;-53
2023/04/11 04:24:02;;;;;;;;;;;20.80;42.90;;;;;;4991406;28;19914;-54
2023/04/11 04:26:30;;;;;;;;;;;20.70;42.90;;;;;;4998380;28;19997;-53
2023/04/11 04:29:03;;;;;;;;;;;20.70;43.00;;;;;;4991395;28;19913;-54
2023/04/11 04:31:32;;;;;;;;;;;20.60;43.20;;;;;;5007937;28;19925;-54
2023/04/11 04:34:10;;;;;;;;;;;20.50;43.20;;;;;;4990931;28;20377;-54
2023/04/11 04:36:48;;;;;;;;;;;20.40;43.30;;;;;;4993696;28;19914;-53
2023/04/11 04:39:17;;;;;;;;;;;20.40;43.50;;;;;;5003471;28;19942;-53
2023/04/11 04:41:47;;;;;;;;;;;20.30;43.60;;;;;;4993805;28;19988;-54
2023/04/11 04:44:14;;;;;;;;;;;20.30;43.60;;;;;;4999838;28;19921;-53
2023/04/11 04:46:40;;;;;;;;;;;20.30;43.50;;;;;;5026283;28;19964;-53
2023/04/11 04:49:06;;;;;;;;;;;20.40;43.40;;;;;;5002644;28;20374;-53
2023/04/11 04:51:31;;;;;;;;;;;20.50;43.20;;;;;;5012080;28;19959;-53
2023/04/11 04:53:56;;;;;;;;;;;20.60;43.00;;;;;;4993894;28;19913;-54
2023/04/11 04:56:22;;;;;;;;;;;20.70;42.90;;;;;;4993937;28;20004;-53
2023/04/11 04:58:47;;;;;;;;;;;20.70;42.60;;;;;;4996206;28;19933;-53
2023/04/11 05:01:13;;;;;;;;;;;20.80;42.40;;;;;;4989597;28;19921;-53
2023/04/11 05:03:38;;;;;;;;;;;20.80;42.40;;;;;;4994000;28;19918;-53
2023/04/11 05:06:05;;;;;;;;;;;20.80;42.30;;;;;;4990693;28;20405;-53
2023/04/11 05:08:30;;;;;;;;;;;20.80;42.50;;;;;;4991246;28;19961;-54
2023/04/11 05:10:56;;;;;;;;;;;20.70;42.50;;;;;;4990851;28;19960;-53
2023/04/11 05:13:21;;;;;;;;;;;20.60;42.70;;;;;;4987879;28;20409;-53
2023/04/11 05:15:48;;;;;;;;;;;20.50;42.90;;;;;;5007409;28;19960;-53
2023/04/11 05:18:13;;;;;;;;;;;20.40;43.00;;;;;;4996208;28;19976;-54
2023/04/11 05:20:39;;;;;;;;;;;20.30;43.10;;;;;;5003011;28;19961;-53
2023/04/11 05:23:04;;;;;;;;;;;20.20;43.10;;;;;;4995578;28;20020;-53
2023/04/11 05:25:30;;;;;;;;;;;20.20;43.30;;;;;;4998407;28;19960;-54
2023/04/11 05:27:55;;;;;;;;;;;20.20;43.40;;;;;;4997867;28;20301;-54
2023/04/11 05:30:21;;;;;;;;;;;20.20;43.50;;;;;;4996096;28;20410;-54
2023/04/11 05:32:46;;;;;;;;;;;20.20;43.40;;;;;;4996471;28;20313;-54
2023/04/11 05:35:12;;;;;;;;;;;20.30;43.30;;;;;;4995392;28;20012;-54
2023/04/11 05:37:37;;;;;;;;;;;20.40;43.10;;;;;;4995397;28;19993;-54
2023/04/11 05:40:03;;;;;;;;;;;20.50;42.80;;;;;;4993387;28;20298;-54
2023/04/11 05:42:28;;;;;;;;;;;20.60;42.60;;;;;;4995492;28;19968;-53
2023/04/11 05:44:53;;;;;;;;;;;20.70;42.50;;;;;;5002659;28;19918;-53
2023/04/11 05:47:19;;;;;;;;;;;20.80;42.10;;;;;;5002120;28;19997;-53
2023/04/11 05:49:44;;;;;;;;;;;20.90;41.90;;;;;;5001803;28;19914;-54
2023/04/11 05:52:10;;;;;;;;;;;20.90;41.90;;;;;;5000309;28;19917;-53
2023/04/11 05:54:36;;;;;;;;;;;20.90;41.90;;;;;;5000677;28;19921;-53
2023/04/11 05:57:01;;;;;;;;;;;20.80;42.20;;;;;;5002802;28;20302;-54
2023/04/11 05:59:29;;;;;;;;;;;20.60;42.40;;;;;;4999778;28;19944;-54
2023/04/11 06:01:55;;;;;;;;;;;20.60;42.60;;;;;;5025061;28;19949;-54
2023/04/11 06:04:20;;;;;;;;;;;20.50;42.80;;;;;;4987332;28;19918;-53
2023/04/11 06:06:46;;;;;;;;;;;20.40;43.10;;;;;;4999104;28;20278;-53
2023/04/11 06:09:12;;;;;;;;;;;20.30;43.20;;;;;;4991573;28;20265;-53
2023/04/11 06:11:37;;;;;;;;;;;20.20;43.40;;;;;;4995051;28;19914;-54
2023/04/11 06:14:03;;;;;;;;;;;20.10;43.60;;;;;;5032892;28;19913;-53
2023/04/11 06:16:30;;;;;;;;;;;20.10;43.60;;;;;;5002957;28;20013;-53
2023/04/11 06:18:56;;;;;;;;;;;20.00;43.60;;;;;;5008325;28;19913;-53
2023/04/11 06:21:21;;;;;;;;;;;20.00;43.90;;;;;;4994065;28;19941;-54
2023/04/11 06:23:47;;;;;;;;;;;20.00;43.80;;;;;;4986886;28;19944;-53
2023/04/11 06:26:12;;;;;;;;;;;20.10;43.80;;;;;;4983162;28;19930;-53
2023/04/11 06:28:37;;;;;;;;;;;20.10;43.80;;;;;;4992536;28;19977;-52
2023/04/11 06:31:03;;;;;;;;;;;20.10;43.80;;;;;;4989742;28;19941;-53
2023/04/11 06:33:28;;;;;;;;;;;20.20;43.40;;;;;;4992915;28;20322;-53
2023/04/11 06:35:54;;;;;;;;;;;20.40;43.30;;;;;;5024150;28;19920;-53
2023/04/11 06:38:19;;;;;;;;;;;20.50;43.10;;;;;;4993641;28;19949;-53
2023/04/11 06:40:45;;;;;;;;;;;20.60;42.90;;;;;;4994344;28;19914;-53
2023/04/11 06:43:11;;;;;;;;;;;20.70;42.80;;;;;;4993620;28;20392;-52
2023/04/11 06:45:36;;;;;;;;;;;20.60;42.70;;;;;;4987333;28;19997;-52
2023/04/11 06:48:02;;;;;;;;;;;20.60;42.90;;;;;;4976538;28;19976;-53
2023/04/11 06:50:27;;;;;;;;;;;20.50;42.90;;;;;;4994192;28;20367;-52
2023/04/11 06:52:52;;;;;;;;;;;20.50;42.90;;;;;;4993553;28;19949;-53
2023/04/11 06:55:18;;;;;;;;;;;20.60;42.90;;;;;;4996559;28;19984;-53
2023/04/11 06:57:43;;;;;;;;;;;20.60;42.80;;;;;;5008986;28;19956;-53
2023/04/11 07:00:11;;;;;;;;;;;20.50;43.00;;;;;;4992814;28;19924;-53
2023/04/11 07:02:37;;;;;;;;;;;20.50;43.00;;;;;;4996543;28;19956;-53
2023/04/11 07:05:03;;;;;;;;;;;20.50;43.10;;;;;;4997062;28;19918;-52
2023/04/11 07:07:29;;;;;;;;;;;20.40;43.00;;;;;;4993269;28;20321;-53
2023/04/11 07:09:55;;;;;;;;;;;20.50;43.00;;;;;;4989547;28;19921;-54
2023/04/11 07:12:20;;;;;;;;;;;20.50;43.00;;;;;;4982033;28;19964;-53
2023/04/11 07:14:46;;;;;;;;;;;20.50;43.00;;;;;;4992570;28;20004;-53
2023/04/11 07:17:11;;;;;;;;;;;20.50;42.90;;;;;;4989473;28;19921;-53
2023/04/11 07:19:36;;;;;;;;;;;20.60;42.90;;;;;;4990083;28;20290;-53
2023/04/11 07:22:02;;;;;;;;;;;20.60;42.90;;;;;;4992686;28;20044;-53
2023/04/11 07:24:29;;;;;;;;;;;20.70;42.90;;;;;;5005342;28;19914;-53
2023/04/11 07:26:57;;;;;;;;;;;20.70;42.90;;;;;;4993359;28;20331;-53
2023/04/11 07:29:22;;;;;;;;;;;20.70;42.80;;;;;;5004724;28;19922;-53
2023/04/11 07:31:49;;;;;;;;;;;20.70;42.70;;;;;;4992638;28;20410;-53
2023/04/11 07:34:14;;;;;;;;;;;20.70;42.60;;;;;;4992070;28;20374;-53
2023/04/11 07:36:40;;;;;;;;;;;20.70;42.70;;;;;;4993786;28;19924;-53
2023/04/11 07:39:08;;;;;;;;;;;20.70;42.70;;;;;;5024093;28;19922;-53
2023/04/11 07:41:36;;;;;;;;;;;20.70;42.90;;;;;;4990691;28;19917;-53
2023/04/11 07:44:06;;;;;;;;;;;20.60;43.00;;;;;;5006572;28;19921;-53
2023/04/11 07:46:31;;;;;;;;;;;20.50;43.10;;;;;;4991426;28;20003;-53
2023/04/11 07:48:56;;;;;;;;;;;20.40;43.20;;;;;;4991777;28;20486;-53
2023/04/11 07:51:22;;;;;;;;;;;20.40;43.30;;;;;;4996908;28;19911;-52
2023/04/11 07:53:47;;;;;;;;;;;20.30;43.30;;;;;;4992736;28;19953;-53
2023/04/11 07:56:13;;;;;;;;;;;20.30;43.50;;;;;;5008550;28;19993;-53
2023/04/11 07:58:39;;;;;;;;;;;20.20;43.60;;;;;;4993972;28;19925;-53
2023/04/11 08:01:05;;;;;;;;;;;20.20;43.70;;;;;;5003338;28;19972;-54
2023/04/11 08:03:31;;;;;;;;;;;20.20;43.80;;;;;;4991229;28;19924;-54
2023/04/11 08:05:56;;;;;;;;;;;20.10;43.80;;;;;;5000641;28;19914;-53
2023/04/11 08:08:22;;;;;;;;;;;20.10;43.90;;;;;;4996258;28;19913;-55
2023/04/11 08:10:47;;;;;;;;;;;20.10;43.80;;;;;;4988037;28;20360;-53
2023/04/11 08:13:13;;;;;;;;;;;20.20;43.80;;;;;;4983919;28;19936;-54
2023/04/11 08:15:38;;;;;;;;;;;20.40;43.70;;;;;;4982403;28;20525;-54
2023/04/11 08:18:04;;;;;;;;;;;20.50;43.50;;;;;;4990717;28;19918;-54
2023/04/11 08:20:30;;;;;;;;;;;20.70;43.30;;;;;;5000641;28;19920;-54
2023/04/11 08:22:55;;;;;;;;;;;20.90;43.20;;;;;;5017889;28;20546;-53
2023/04/11 08:25:23;;;;;;;;;;;20.90;43.10;;;;;;4987985;28;20342;-54
2023/04/11 08:27:49;;;;;;;;;;;21.00;43.00;;;;;;4995257;28;19918;-53
2023/04/11 08:30:15;;;;;;;;;;;21.10;43.10;;;;;;4996240;28;19917;-53
2023/04/11 08:32:41;;;;;;;;;;;21.00;43.20;;;;;;4985338;28;20322;-54
2023/04/11 08:35:06;;;;;;;;;;;21.00;43.50;;;;;;4994049;28;19922;-53
2023/04/11 08:37:32;;;;;;;;;;;21.00;43.60;;;;;;4984121;28;19976;-55
2023/04/11 08:39:57;;;;;;;;;;;20.90;43.60;;;;;;4992649;28;19930;-55
2023/04/11 08:42:26;;;;;;;;;;;20.80;43.90;;;;;;4991517;28;20015;-55
2023/04/11 08:44:53;;;;;;;;;;;20.80;44.00;;;;;;4988196;28;20358;-55
2023/04/11 08:47:18;;;;;;;;;;;20.70;44.10;;;;;;4994113;28;19914;-55
2023/04/11 08:49:43;;;;;;;;;;;20.70;44.10;;;;;;4994443;28;20016;-56
2023/04/11 08:52:09;;;;;;;;;;;20.60;44.40;;;;;;5008751;28;19940;-54
2023/04/11 08:54:34;;;;;;;;;;;20.60;44.30;;;;;;5031685;28;19922;-55
2023/04/11 08:57:00;;;;;;;;;;;20.50;44.30;;;;;;4992172;28;20297;-55
2023/04/11 08:59:26;;;;;;;;;;;20.50;44.50;;;;;;4993572;28;19945;-55
2023/04/11 09:01:51;;;;;;;;;;;20.40;44.70;;;;;;4989967;28;19992;-55
2023/04/11 09:04:17;;;;;;;;;;;20.40;44.80;;;;;;5013931;28;19921;-55
2023/04/11 09:06:54;;;;;;;;;;;20.30;44.70;;;;;;5000267;28;19914;-55
2023/04/11 09:09:29;;;;;;;;;;;20.40;44.80;;;;;;4995259;28;19917;-54
2023/04/11 09:11:55;;;;;;;;;;;21.00;44.10;;;;;;4983629;28;19952;-54
2023/04/11 09:14:22;;;;;;;;;;;21.80;42.60;;;;;;4992778;28;19968;-55
2023/04/11 09:16:55;;;;;;;;;;;22.60;41.40;;;;;;4993422;28;19914;-55
2023/04/11 09:19:25;;;;;;;;;;;23.20;40.30;;;;;;5003025;28;20460;-55
2023/04/11 09:21:52;;;;;;;;;;;23.60;39.90;;;;;;4998603;28;19922;-55
2023/04/11 09:24:18;;;;;;;;;;;23.80;39.60;;;;;;4999737;28;20005;-55
2023/04/11 09:26:43;;;;;;;;;;;23.90;39.20;;;;;;5005455;28;20008;-54
2023/04/11 09:29:09;;;;;;;;;;;24.10;39.20;;;;;;4996720;28;19914;-55
2023/04/11 09:31:38;;;;;;;;;;;24.30;39.00;;;;;;4993856;28;19914;-54
2023/04/11 09:34:03;;;;;;;;;;;24.40;39.00;;;;;;5004570;28;20092;-55
2023/04/11 09:36:29;;;;;;;;;;;24.50;38.80;;;;;;5003390;28;19918;-55
2023/04/11 09:38:55;;;;;;;;;;;24.60;38.70;;;;;;5031167;28;20386;-55
2023/04/11 09:41:31;;;;;;;;;;;24.70;38.60;;;;;;5003749;28;20531;-55
2023/04/11 09:43:56;;;;;;;;;;;24.70;38.60;;;;;;4996887;28;19914;-55
2023/04/11 09:46:21;;;;;;;;;;;24.70;38.60;;;;;;5008420;28;19937;-54
2023/04/11 09:48:47;;;;;;;;;;;24.70;38.70;;;;;;5001806;28;19913;-55
2023/04/11 09:51:13;;;;;;;;;;;24.70;38.70;;;;;;4993127;28;19999;-55
2023/04/11 09:53:39;;;;;;;;;;;24.60;38.80;;;;;;4993558;28;19917;-55
2023/04/11 09:56:07;;;;;;;;;;;24.60;38.80;;;;;;4995458;28;19933;-54
2023/04/11 09:58:33;;;;;;;;;;;24.60;38.90;;;;;;5002823;28;19914;-55
2023/04/11 10:00:59;;;;;;;;;;;24.70;38.90;;;;;;5000483;28;20727;-55
2023/04/11 10:03:25;;;;;;;;;;;24.50;39.00;;;;;;5008006;28;19921;-55
2023/04/11 10:05:54;;;;;;;;;;;24.50;39.30;;;;;;5003763;28;19913;-55
2023/04/11 10:08:27;;;;;;;;;;;24.30;39.40;;;;;;4998501;28;19921;-55
2023/04/11 10:10:53;;;;;;;;;;;24.20;39.60;;;;;;4998763;28;19937;-55
2023/04/11 10:13:33;;;;;;;;;;;24.00;39.90;;;;;;5003690;28;19914;-55
2023/04/11 10:16:08;;;;;;;;;;;23.90;40.10;;;;;;4991500;28;19917;-56
2023/04/11 10:18:33;;;;;;;;;;;23.70;40.40;;;;;;5004607;28;19914;-56
2023/04/11 10:21:00;;;;;;;;;;;23.80;40.60;;;;;;5007288;28;19964;-55
2023/04/11 10:23:25;;;;;;;;;;;23.80;40.50;;;;;;5005302;28;19925;-54
2023/04/11 10:25:51;;;;;;;;;;;24.00;40.30;;;;;;4993300;28;19921;-55
2023/04/11 10:28:30;;;;;;;;;;;24.10;40.20;;;;;;5005486;28;19997;-56
2023/04/11 10:31:06;;;;;;;;;;;24.10;40.10;;;;;;5008665;28;19918;-56
2023/04/11 10:33:32;;;;;;;;;;;24.10;40.30;;;;;;5004547;28;19917;-55
2023/04/11 10:36:11;;;;;;;;;;;24.10;40.40;;;;;;4999105;28;19920;-55
2023/04/11 10:38:42;;;;;;;;;;;24.10;40.30;;;;;;4977089;28;19969;-55
2023/04/11 10:41:16;;;;;;;;;;;24.10;40.30;;;;;;5002570;28;19914;-55
2023/04/11 10:43:42;;;;;;;;;;;24.20;40.20;;;;;;5006036;28;19918;-54
2023/04/11 10:46:18;;;;;;;;;;;24.30;40.00;;;;;;4994527;28;19921;-55
2023/04/11 10:49:02;;;;;;;;;;;24.30;39.90;;;;;;5000316;28;19914;-54
2023/04/11 10:51:31;;;;;;;;;;;24.20;40.10;;;;;;5034780;28;19914;-55
2023/04/11 10:54:00;;;;;;;;;;;24.00;40.20;;;;;;4993713;28;19989;-55
2023/04/11 10:56:44;;;;;;;;;;;23.90;40.60;;;;;;5027077;28;19913;-55
2023/04/11 10:59:28;;;;;;;;;;;23.90;40.60;;;;;;4993068;28;19913;-55
2023/04/11 11:01:54;;;;;;;;;;;24.00;40.50;;;;;;4994980;28;19929;-54
2023/04/11 11:04:20;;;;;;;;;;;24.10;40.30;;;;;;5002404;28;19913;-54
2023/04/11 11:06:45;;;;;;;;;;;24.20;40.10;;;;;;4994359;28;20327;-53
2023/04/11 11:09:21;;;;;;;;;;;24.30;40.00;;;;;;5004138;28;19918;-54
2023/04/11 11:12:03;;;;;;;;;;;24.40;39.90;;;;;;5004328;28;19959;-53
2023/04/11 11:14:29;;;;;;;;;;;24.40;39.80;;;;;;5020803;28;19914;-54
2023/04/11 11:16:54;;;;;;;;;;;24.40;39.70;;;;;;5006282;28;20321;-54
2023/04/11 11:19:20;;;;;;;;;;;24.30;39.80;;;;;;4997930;28;19917;-54
2023/04/11 11:21:45;;;;;;;;;;;24.20;40.00;;;;;;4998110;28;19917;-53
2023/04/11 11:24:10;;;;;;;;;;;24.20;40.20;;;;;;4996413;28;19917;-55
2023/04/11 11:26:37;;;;;;;;;;;24.10;40.10;;;;;;4999223;28;20393;-54
2023/04/11 11:29:04;;;;;;;;;;;24.10;40.70;;;;;;5002875;28;20358;-54
2023/04/11 11:31:51;;;;;;;;;;;24.10;40.00;;;;;;4988204;28;19922;-53
2023/04/11 11:34:25;;;;;;;;;;;24.20;40.10;;;;;;4996380;28;20282;-53
2023/04/11 11:36:51;;;;;;;;;;;24.30;39.90;;;;;;4985796;28;19921;-53
2023/04/11 11:39:17;;;;;;;;;;;24.40;39.70;;;;;;4984443;28;20368;-54
2023/04/11 11:41:42;;;;;;;;;;;24.50;39.80;;;;;;4989095;28;20036;-54
2023/04/11 11:44:11;;;;;;;;;;;24.40;39.90;;;;;;4995944;28;19992;-54
2023/04/11 11:46:37;;;;;;;;;;;24.20;40.00;;;;;;5026129;28;19918;-54
2023/04/11 11:49:03;;;;;;;;;;;24.00;40.30;;;;;;4990969;28;19918;-53
2023/04/11 11:51:38;;;;;;;;;;;23.90;40.70;;;;;;5005887;28;19938;-53
2023/04/11 11:54:04;;;;;;;;;;;23.80;40.90;;;;;;4990946;28;19918;-53
2023/04/11 11:56:30;;;;;;;;;;;23.80;40.70;;;;;;4989105;28;19956;-54
2023/04/11 11:58:56;;;;;;;;;;;23.90;40.60;;;;;;4999836;28;20120;-54
2023/04/11 12:01:21;;;;;;;;;;;24.10;40.50;;;;;;4979328;28;20370;-53
2023/04/11 12:03:50;;;;;;;;;;;24.10;40.30;;;;;;4986191;28;20360;-54
2023/04/11 12:06:16;;;;;;;;;;;24.30;40.10;;;;;;4993303;28;20002;-53
2023/04/11 12:08:50;;;;;;;;;;;24.50;39.70;;;;;;4993972;28;20405;-53
2023/04/11 12:11:17;;;;;;;;;;;24.60;39.50;;;;;;5006226;28;20012;-52
2023/04/11 12:13:44;;;;;;;;;;;24.70;39.40;;;;;;4990984;28;19965;-53
2023/04/11 12:16:10;;;;;;;;;;;24.70;39.30;;;;;;4990996;28;19917;-53
2023/04/11 12:18:35;;;;;;;;;;;24.70;39.20;;;;;;4991164;28;19924;-54
2023/04/11 12:21:00;;;;;;;;;;;24.70;39.30;;;;;;5010990;28;20112;-52
2023/04/11 12:23:26;;;;;;;;;;;24.70;39.30;;;;;;4991138;28;19976;-53
2023/04/11 12:25:51;;;;;;;;;;;24.70;39.50;;;;;;4991149;28;19922;-53
2023/04/11 12:28:17;;;;;;;;;;;24.60;39.50;;;;;;4990888;28;20413;-52
2023/04/11 12:30:42;;;;;;;;;;;24.60;39.60;;;;;;4985598;28;20334;-53
2023/04/11 12:33:08;;;;;;;;;;;24.50;39.70;;;;;;4998543;28;20492;-53
2023/04/11 12:35:33;;;;;;;;;;;24.50;39.90;;;;;;4984558;28;19917;-53
2023/04/11 12:37:59;;;;;;;;;;;24.30;40.20;;;;;;4996391;28;19918;-54
2023/04/11 12:40:25;;;;;;;;;;;24.20;40.30;;;;;;4998098;28;20477;-53
2023/04/11 12:42:51;;;;;;;;;;;24.10;40.50;;;;;;4981568;28;19925;-54
2023/04/11 12:45:16;;;;;;;;;;;24.00;40.70;;;;;;4993858;28;19914;-53
2023/04/11 12:47:42;;;;;;;;;;;23.90;41.00;;;;;;4988712;28;20290;-54
2023/04/11 12:50:07;;;;;;;;;;;23.70;41.30;;;;;;4992494;28;19914;-53
2023/04/11 12:52:33;;;;;;;;;;;23.60;41.50;;;;;;4994525;28;20254;-53
2023/04/11 12:54:58;;;;;;;;;;;23.50;41.80;;;;;;4992698;28;19945;-53
2023/04/11 12:57:24;;;;;;;;;;;23.70;41.60;;;;;;4991366;28;19928;-53
2023/04/11 12:59:50;;;;;;;;;;;23.90;41.10;;;;;;5024340;28;19968;-53
2023/04/11 13:02:15;;;;;;;;;;;24.10;40.70;;;;;;4993458;28;19921;-53
2023/04/11 13:04:41;;;;;;;;;;;24.30;40.30;;;;;;4986741;28;19925;-53
2023/04/11 13:07:06;;;;;;;;;;;24.50;39.90;;;;;;4998897;28;20004;-53
2023/04/11 13:09:32;;;;;;;;;;;24.70;39.80;;;;;;4992724;28;20425;-53
2023/04/11 13:11:58;;;;;;;;;;;24.80;39.60;;;;;;4996041;28;19918;-54
2023/04/11 13:14:24;;;;;;;;;;;24.90;39.50;;;;;;4996121;28;20384;-55
2023/04/11 13:16:49;;;;;;;;;;;24.90;39.40;;;;;;4990622;28;20342;-54
2023/04/11 13:19:15;;;;;;;;;;;24.80;39.40;;;;;;4985992;28;20274;-54
2023/04/11 13:21:40;;;;;;;;;;;24.70;39.60;;;;;;4993794;28;19921;-54
2023/04/11 13:24:06;;;;;;;;;;;24.50;39.90;;;;;;4992056;28;19993;-55
2023/04/11 13:26:32;;;;;;;;;;;24.30;40.10;;;;;;4989775;28;19929;-53
2023/04/11 13:28:58;;;;;;;;;;;24.20;40.30;;;;;;5025122;28;19975;-54
2023/04/11 13:31:26;;;;;;;;;;;24.10;40.50;;;;;;4989896;28;19918;-55
2023/04/11 13:33:51;;;;;;;;;;;24.10;40.60;;;;;;5008145;28;20305;-54
2023/04/11 13:36:17;;;;;;;;;;;24.00;40.80;;;;;;5000101;28;19914;-55
2023/04/11 13:38:43;;;;;;;;;;;23.90;40.90;;;;;;5001299;28;20349;-55
2023/04/11 13:41:09;;;;;;;;;;;23.90;41.10;;;;;;4990035;28;19925;-54
2023/04/11 13:43:34;;;;;;;;;;;24.00;41.00;;;;;;4999131;28;20325;-55
2023/04/11 13:46:00;;;;;;;;;;;24.00;41.00;;;;;;4993733;28;19913;-54
2023/04/11 13:48:25;;;;;;;;;;;23.90;41.10;;;;;;4994255;28;19913;-54
2023/04/11 13:50:51;;;;;;;;;;;24.00;41.10;;;;;;4989845;28;19918;-55
2023/04/11 13:53:16;;;;;;;;;;;24.10;40.70;;;;;;4991323;28;19914;-53
2023/04/11 13:55:43;;;;;;;;;;;24.30;40.40;;;;;;4994243;28;19914;-54
2023/04/11 13:58:09;;;;;;;;;;;24.40;40.20;;;;;;4995946;28;19918;-54
2023/04/11 14:00:35;;;;;;;;;;;24.40;40.00;;;;;;4995574;28;19914;-54
2023/04/11 14:03:00;;;;;;;;;;;24.50;39.90;;;;;;5000649;28;19917;-54
2023/04/11 14:05:26;;;;;;;;;;;24.70;39.60;;;;;;4994819;28;19920;-55
2023/04/11 14:07:51;;;;;;;;;;;24.70;39.50;;;;;;5002013;28;20021;-54
2023/04/11 14:10:17;;;;;;;;;;;24.70;39.40;;;;;;4995584;28;19922;-54
2023/04/11 14:12:42;;;;;;;;;;;24.70;39.80;;;;;;4999710;28;20375;-55